[2025-03-06 00:00:00, 2025-03-06 23:59:59] previous next
| time | temperature | air pressure | humidity | solar radiation | wind speed |
|---|---|---|---|---|---|
| 2025-03-06 06:56:15 | 6.4 | 1010.0 | 83.0 | 0.0 | 0.0 |
| 2025-03-06 07:20:46 | 9.2 | 1010.0 | 72.0 | 23.1 | 0.0 |
| 2025-03-06 07:40:43 | 11.1 | 1010.0 | 67.0 | 27.5 | 0.6 |
| 2025-03-06 08:00:44 | 12.4 | 1010.0 | 63.0 | 31.6 | 1.3 |
| 2025-03-06 08:20:44 | 12.7 | 1010.0 | 62.0 | 34.9 | 0.8 |
| 2025-03-06 08:40:44 | 12.4 | 1010.0 | 64.0 | 53.7 | 1.7 |
| 2025-03-06 09:00:44 | 13.0 | 1010.0 | 62.0 | 76.7 | 1.8 |
| 2025-03-06 09:20:43 | 13.1 | 1010.4 | 62.0 | 83.1 | 0.6 |
| 2025-03-06 09:40:44 | 13.8 | 1010.0 | 59.0 | 93.1 | 0.3 |
| 2025-03-06 10:00:43 | 14.0 | 1010.0 | 59.0 | 103.1 | 1.5 |
| 2025-03-06 10:20:44 | 14.4 | 1010.4 | 59.0 | 102.4 | 1.0 |
| 2025-03-06 10:40:43 | 16.2 | 1010.0 | 55.0 | 84.9 | 1.7 |
| 2025-03-06 11:00:44 | 17.4 | 1010.0 | 51.0 | 200.2 | 2.9 |
| 2025-03-06 11:20:45 | 18.5 | 1010.0 | 49.0 | 245.7 | 2.5 |
| 2025-03-06 11:40:44 | 18.5 | 1010.0 | 48.0 | 280.2 | 1.0 |
| 2025-03-06 12:00:43 | 18.9 | 1009.7 | 47.0 | 300.6 | 3.1 |
| 2025-03-06 12:20:44 | 18.8 | 1009.3 | 44.0 | 306.3 | 2.5 |
| 2025-03-06 12:40:43 | 18.9 | 1009.3 | 42.0 | 310.1 | 1.8 |
| 2025-03-06 13:00:44 | 19.2 | 1009.3 | 41.0 | 311.0 | 0.1 |
| 2025-03-06 13:20:44 | 19.6 | 1009.0 | 40.0 | 310.1 | 1.0 |
| 2025-03-06 13:40:44 | 20.6 | 1009.0 | 40.0 | 309.3 | 0.8 |
| 2025-03-06 14:00:43 | 20.8 | 1008.7 | 38.0 | 304.4 | 2.8 |
| 2025-03-06 14:20:43 | 21.2 | 1008.7 | 36.0 | 298.0 | 2.8 |
| 2025-03-06 14:44:47 | 20.5 | 1008.0 | 34.0 | 276.2 | 2.5 |
| 2025-03-06 15:04:46 | 21.0 | 1008.0 | 34.0 | 261.4 | 2.2 |
| 2025-03-06 15:24:46 | 20.6 | 1007.7 | 34.0 | 240.8 | 4.3 |
| 2025-03-06 15:44:48 | 20.2 | 1008.0 | 35.0 | 210.8 | 3.4 |
| 2025-03-06 16:04:46 | 20.2 | 1007.7 | 36.0 | 178.2 | 1.8 |
CSV export: /station/IWELLEN5/data?period=20250306T000000/20250306T235959&format=csv&tz=GMT